Woodland, Mississippi
Current Conditions -  °F | °C
As of 6:15 PM on Thursday 27 Nov 2014 (Local Time) from KSTF Reporting Station
NA  
Wind Chill:   Ceiling: NA
Heat Index:   Visibility: NA
Dew Point: -1°   Wind: 0mph
Humidity: 93%   Direction: NA
Pressure: 30.47"   Gusts: NA
Location:  33.78°N, 89.05°W
Report Text: KSTF 280015Z AUTO 00000KT 00/M01 A3047 RMK AO2 PWINO
Loading
Personal Weather Stations






























Interactive Weather Map New forecast layout! Learn more

10-Day Weather Forecast

Advertisements
Track Severe Weather on mobile